createdAt,value
2023-02-16T00:01:59.138Z,102693.22
2023-02-16T00:04:31.277Z,102682.69
2023-02-16T00:06:58.561Z,102681.75
2023-02-16T00:09:26.007Z,102689.00
2023-02-16T00:12:13.348Z,102680.13
2023-02-16T00:14:40.790Z,102679.41
2023-02-16T00:17:11.289Z,102674.16
2023-02-16T00:19:40.638Z,102678.69
2023-02-16T00:22:11.464Z,102679.69
2023-02-16T00:24:41.566Z,102674.34
2023-02-16T00:27:13.456Z,102671.78
2023-02-16T00:29:40.434Z,102679.00
2023-02-16T00:32:12.512Z,102672.84
2023-02-16T00:34:43.313Z,102665.88
2023-02-16T00:37:12.883Z,102665.03
2023-02-16T00:39:42.642Z,102670.50
2023-02-16T00:42:19.013Z,102669.78
2023-02-16T00:44:49.336Z,102677.09
2023-02-16T00:47:23.541Z,102673.75
2023-02-16T00:49:53.336Z,102665.75
2023-02-16T00:52:42.851Z,102664.00
2023-02-16T00:55:15.548Z,102659.59
2023-02-16T00:57:51.341Z,102654.25
2023-02-16T01:00:25.371Z,102659.66
2023-02-16T01:02:57.406Z,102660.69
2023-02-16T01:05:25.047Z,102657.25
2023-02-16T01:08:10.607Z,102659.03
2023-02-16T01:10:57.417Z,102651.16
2023-02-16T01:13:27.038Z,102652.94
2023-02-16T01:15:55.623Z,102647.81
2023-02-16T01:18:22.820Z,102646.81
2023-02-16T01:21:25.788Z,102650.38
2023-02-16T01:23:52.836Z,102649.50
2023-02-16T01:26:20.659Z,102645.13
2023-02-16T01:28:48.553Z,102654.13
2023-02-16T01:31:16.798Z,102645.22
2023-02-16T01:33:44.167Z,102645.31
2023-02-16T01:36:22.555Z,102647.06
2023-02-16T01:38:49.473Z,102646.31
2023-02-16T01:41:25.185Z,102645.63
2023-02-16T01:44:11.772Z,102644.81
2023-02-16T01:47:07.904Z,102636.13
2023-02-16T01:49:38.115Z,102637.97
2023-02-16T01:52:14.336Z,102639.75
2023-02-16T01:54:47.772Z,102639.84
2023-02-16T01:57:14.955Z,102639.25
2023-02-16T01:59:49.159Z,102627.44
2023-02-16T02:02:29.054Z,102624.72
2023-02-16T02:05:22.211Z,102623.88
2023-02-16T02:08:02.772Z,102627.44
2023-02-16T02:11:10.207Z,102629.31
2023-02-16T02:13:54.693Z,102622.25
2023-02-16T02:16:26.426Z,102618.66
2023-02-16T02:18:53.427Z,102611.59
2023-02-16T02:22:00.597Z,102614.31
2023-02-16T02:24:46.938Z,102611.66
2023-02-16T02:27:24.819Z,102613.56
2023-02-16T02:30:06.486Z,102617.28
2023-02-16T02:33:05.741Z,102615.78
2023-02-16T02:35:55.393Z,102620.31
2023-02-16T02:38:47.965Z,102612.31
2023-02-16T02:41:57.394Z,102610.56
2023-02-16T02:44:29.544Z,102625.06
2023-02-16T02:46:57.084Z,102618.78
2023-02-16T02:49:24.110Z,102624.25
2023-02-16T02:51:51.989Z,102614.50
2023-02-16T02:54:46.743Z,102612.78
2023-02-16T02:57:53.574Z,102614.63
2023-02-16T03:00:41.514Z,102615.75
2023-02-16T03:03:30.589Z,102616.75
2023-02-16T03:05:57.591Z,102615.00
2023-02-16T03:08:27.354Z,102616.75
2023-02-16T03:11:27.723Z,102615.88
2023-02-16T03:14:00.103Z,102615.91
2023-02-16T03:16:34.159Z,102611.50
2023-02-16T03:19:21.142Z,102608.97
2023-02-16T03:22:07.143Z,102612.56
2023-02-16T03:24:53.003Z,102614.47
2023-02-16T03:27:44.317Z,102614.50
2023-02-16T03:30:15.038Z,102614.50
2023-02-16T03:32:43.444Z,102609.22
2023-02-16T03:35:12.845Z,102613.81
2023-02-16T03:37:45.014Z,102610.34
2023-02-16T03:40:30.332Z,102616.59
2023-02-16T03:43:02.882Z,102615.91
2023-02-16T03:45:31.611Z,102614.16
2023-02-16T03:47:58.611Z,102608.94
2023-02-16T03:50:27.486Z,102614.38
2023-02-16T03:53:07.931Z,102619.69
2023-02-16T03:55:44.153Z,102624.13
2023-02-16T03:58:19.879Z,102620.69
2023-02-16T04:00:47.459Z,102624.25
2023-02-16T04:03:15.018Z,102623.47
2023-02-16T04:05:42.236Z,102621.72
2023-02-16T04:08:10.170Z,102626.22
2023-02-16T04:10:38.642Z,102619.19
2023-02-16T04:13:05.604Z,102615.75
2023-02-16T04:15:33.191Z,102615.00
2023-02-16T04:18:00.267Z,102611.53
2023-02-16T04:20:32.051Z,102608.06
2023-02-16T04:22:59.056Z,102609.78
2023-02-16T04:25:26.012Z,102610.72
2023-02-16T04:27:53.896Z,102608.09
2023-02-16T04:30:23.900Z,102618.91
2023-02-16T04:32:50.960Z,102615.59
2023-02-16T04:35:18.604Z,102617.38
2023-02-16T04:37:45.598Z,102622.78
2023-02-16T04:40:14.123Z,102622.75
2023-02-16T04:42:42.069Z,102622.91
2023-02-16T04:45:10.171Z,102620.25
2023-02-16T04:47:37.648Z,102619.41
2023-02-16T04:50:05.479Z,102624.75
2023-02-16T04:52:32.544Z,102617.75
2023-02-16T04:54:59.617Z,102619.53
2023-02-16T04:57:26.527Z,102626.59
2023-02-16T04:59:53.534Z,102616.84
2023-02-16T05:02:20.408Z,102620.41
2023-02-16T05:04:47.936Z,102623.09
2023-02-16T05:07:14.824Z,102619.66
2023-02-16T05:09:41.865Z,102626.75
2023-02-16T05:12:28.729Z,102631.25
2023-02-16T05:14:55.694Z,102628.94
2023-02-16T05:17:26.679Z,102636.91
2023-02-16T05:19:59.371Z,102642.31
2023-02-16T05:22:28.744Z,102641.44
2023-02-16T05:24:55.722Z,102640.50
2023-02-16T05:27:25.650Z,102641.44
2023-02-16T05:29:52.695Z,102643.38
2023-02-16T05:32:20.579Z,102639.78
2023-02-16T05:34:48.109Z,102644.25
2023-02-16T05:37:17.748Z,102638.06
2023-02-16T05:39:45.275Z,102628.38
2023-02-16T05:42:12.237Z,102639.88
2023-02-16T05:44:39.440Z,102638.25
2023-02-16T05:47:06.396Z,102637.44
2023-02-16T05:49:33.261Z,102635.69
2023-02-16T05:52:00.207Z,102635.69
2023-02-16T05:54:28.107Z,102633.13
2023-02-16T05:56:55.090Z,102634.88
2023-02-16T05:59:22.692Z,102633.13
2023-02-16T06:01:51.969Z,102640.28
2023-02-16T06:04:20.364Z,102638.53
2023-02-16T06:06:47.901Z,102643.84
2023-02-16T06:09:15.306Z,102635.06
2023-02-16T06:11:42.879Z,102644.88
2023-02-16T06:14:13.169Z,102640.44
2023-02-16T06:16:42.732Z,102643.97
2023-02-16T06:19:09.796Z,102644.03
2023-02-16T06:21:37.651Z,102645.03
2023-02-16T06:24:05.217Z,102643.28
2023-02-16T06:26:32.451Z,102641.47
2023-02-16T06:28:59.463Z,102640.66
2023-02-16T06:31:27.045Z,102645.06
2023-02-16T06:33:56.861Z,102645.91
2023-02-16T06:36:24.820Z,102649.47
2023-02-16T06:38:52.231Z,102650.50
2023-02-16T06:41:39.850Z,102655.72
2023-02-16T06:44:12.524Z,102662.84
2023-02-16T06:46:40.960Z,102669.88
2023-02-16T06:49:08.450Z,102667.22
2023-02-16T06:51:35.419Z,102664.63
2023-02-16T06:54:02.359Z,102675.16
2023-02-16T06:56:29.377Z,102679.59
2023-02-16T06:58:56.346Z,102675.94
2023-02-16T07:01:25.978Z,102677.66
2023-02-16T07:03:55.457Z,102689.06
2023-02-16T07:06:24.723Z,102686.38
2023-02-16T07:08:52.265Z,102690.63
2023-02-16T07:11:20.335Z,102696.69
2023-02-16T07:13:50.205Z,102698.25
2023-02-16T07:16:17.159Z,102714.00
2023-02-16T07:18:47.686Z,102713.69
2023-02-16T07:21:15.015Z,102721.47
2023-02-16T07:23:41.980Z,102722.13
2023-02-16T07:26:09.692Z,102727.13
2023-02-16T07:28:36.668Z,102726.03
2023-02-16T07:31:09.212Z,102720.31
2023-02-16T07:33:36.902Z,102726.09
2023-02-16T07:36:04.481Z,102728.25
2023-02-16T07:38:31.573Z,102727.66
2023-02-16T07:40:59.176Z,102741.06
2023-02-16T07:43:26.361Z,102736.66
2023-02-16T07:45:53.684Z,102741.91
2023-02-16T07:48:20.970Z,102742.69
2023-02-16T07:50:47.921Z,102746.69
2023-02-16T07:53:14.947Z,102747.97
2023-02-16T07:55:43.691Z,102743.91
2023-02-16T07:58:10.901Z,102753.28
2023-02-16T08:00:38.133Z,102752.53
2023-02-16T08:03:05.411Z,102753.97
2023-02-16T08:05:34.517Z,102753.25
2023-02-16T08:08:01.446Z,102752.66
2023-02-16T08:10:28.605Z,102756.72
2023-02-16T08:12:55.521Z,102752.38
2023-02-16T08:15:24.025Z,102759.00
2023-02-16T08:17:51.189Z,102760.53
2023-02-16T08:20:18.238Z,102752.88
2023-02-16T08:22:45.336Z,102756.47
2023-02-16T08:25:12.280Z,102765.44
2023-02-16T08:27:41.611Z,102762.22
2023-02-16T08:30:12.976Z,102765.34
2023-02-16T08:32:40.843Z,102767.00
2023-02-16T08:35:08.930Z,102764.28
2023-02-16T08:37:38.961Z,102771.00
2023-02-16T08:40:09.101Z,102766.69
2023-02-16T08:42:37.154Z,102764.53
2023-02-16T08:45:06.720Z,102765.31
2023-02-16T08:47:34.960Z,102782.47
2023-02-16T08:50:01.865Z,102775.06
2023-02-16T08:52:29.168Z,102772.88
2023-02-16T08:54:56.135Z,102784.94
2023-02-16T08:57:23.084Z,102777.50
2023-02-16T09:00:10.177Z,102779.75
2023-02-16T09:02:37.596Z,102786.94
2023-02-16T09:05:04.709Z,102783.88
2023-02-16T09:07:35.195Z,102787.53
2023-02-16T09:10:03.201Z,102789.28
2023-02-16T09:12:31.121Z,102794.28
2023-02-16T09:15:01.807Z,102790.84
2023-02-16T09:17:29.272Z,102795.50
2023-02-16T09:19:56.703Z,102794.75
2023-02-16T09:22:23.785Z,102801.81
2023-02-16T09:24:50.977Z,102794.31
2023-02-16T09:27:18.522Z,102800.19
2023-02-16T09:29:45.656Z,102798.16
2023-02-16T09:32:15.557Z,102794.88
2023-02-16T09:34:44.722Z,102800.44
2023-02-16T09:37:11.668Z,102807.44
2023-02-16T09:39:38.598Z,102802.09
2023-02-16T09:42:20.822Z,102806.94
2023-02-16T09:44:53.538Z,102804.31
2023-02-16T09:47:31.527Z,102808.22
2023-02-16T09:50:06.584Z,102806.31
2023-02-16T09:52:44.605Z,102808.41
2023-02-16T09:55:15.442Z,102812.00
2023-02-16T09:57:55.765Z,102804.91
2023-02-16T10:00:34.659Z,102812.38
2023-02-16T10:03:01.635Z,102824.06
2023-02-16T10:05:53.460Z,102820.25
2023-02-16T10:08:31.588Z,102812.56
2023-02-16T10:11:30.821Z,102819.06
2023-02-16T10:14:03.069Z,102816.81
2023-02-16T10:16:41.466Z,102822.19
2023-02-16T10:19:36.130Z,102825.63
2023-02-16T10:22:08.711Z,102829.53
2023-02-16T10:24:47.073Z,102835.91
2023-02-16T10:27:16.576Z,102842.22
2023-02-16T10:29:43.714Z,102836.00
2023-02-16T10:32:30.692Z,102833.94
2023-02-16T10:35:22.593Z,102837.47
2023-02-16T10:38:04.315Z,102834.03
2023-02-16T10:41:03.744Z,102832.31
2023-02-16T10:43:58.746Z,102836.63
2023-02-16T10:46:31.206Z,102843.81
2023-02-16T10:49:02.220Z,102835.59
2023-02-16T10:51:37.416Z,102840.34
2023-02-16T10:54:15.218Z,102840.16
2023-02-16T10:56:52.577Z,102838.47
2023-02-16T10:59:23.600Z,102835.66
2023-02-16T11:01:57.660Z,102842.44
2023-02-16T11:04:41.561Z,102842.44
2023-02-16T11:07:23.439Z,102834.63
2023-02-16T11:09:55.683Z,102838.59
2023-02-16T11:12:28.527Z,102834.97
2023-02-16T11:15:01.288Z,102837.34
2023-02-16T11:17:28.336Z,102838.28
2023-02-16T11:20:01.961Z,102838.59
2023-02-16T11:22:38.256Z,102832.47
2023-02-16T11:25:23.913Z,102825.25
2023-02-16T11:28:02.170Z,102823.00
2023-02-16T11:30:32.533Z,102821.13
2023-02-16T11:33:05.710Z,102813.09
2023-02-16T11:35:41.144Z,102815.50
2023-02-16T11:38:26.931Z,102801.91
2023-02-16T11:40:55.847Z,102816.81
2023-02-16T11:43:28.657Z,102808.84
2023-02-16T11:46:20.135Z,102807.81
2023-02-16T11:48:47.923Z,102803.22
2023-02-16T11:51:16.104Z,102807.31
2023-02-16T11:53:44.507Z,102805.09
2023-02-16T11:56:13.440Z,102802.41
2023-02-16T11:58:41.007Z,102802.16
2023-02-16T12:01:35.973Z,102801.91
2023-02-16T12:04:22.422Z,102807.97
2023-02-16T12:07:17.988Z,102792.22
2023-02-16T12:10:10.857Z,102792.81
2023-02-16T12:13:10.345Z,102789.19
2023-02-16T12:15:47.055Z,102784.28
2023-02-16T12:18:17.291Z,102780.47
2023-02-16T12:21:07.003Z,102780.00
2023-02-16T12:23:42.608Z,102779.66
2023-02-16T12:26:10.050Z,102770.28
2023-02-16T12:29:11.792Z,102773.25
2023-02-16T12:32:16.254Z,102766.06
2023-02-16T12:35:01.761Z,102764.06
2023-02-16T12:37:37.948Z,102761.28
2023-02-16T12:40:10.940Z,102762.66
2023-02-16T12:43:12.745Z,102748.78
2023-02-16T12:45:44.588Z,102745.22
2023-02-16T12:48:11.408Z,102744.72
2023-02-16T12:50:45.140Z,102736.47
2023-02-16T12:53:22.546Z,102744.47
2023-02-16T12:56:03.575Z,102744.66
2023-02-16T12:58:35.337Z,102740.69
2023-02-16T13:01:14.724Z,102744.72
2023-02-16T13:04:02.229Z,102738.03
2023-02-16T13:06:56.644Z,102731.03
2023-02-16T13:09:41.698Z,102735.53
2023-02-16T13:12:34.486Z,102737.19
2023-02-16T13:15:30.847Z,102731.16
2023-02-16T13:18:03.458Z,102729.66
2023-02-16T13:20:30.677Z,102724.59
2023-02-16T13:23:19.005Z,102735.47
2023-02-16T13:26:05.628Z,102720.69
2023-02-16T13:28:47.248Z,102724.78
2023-02-16T13:31:29.477Z,102711.09
2023-02-16T13:34:05.738Z,102719.66
2023-02-16T13:36:47.831Z,102713.81
2023-02-16T13:39:31.739Z,102705.56
2023-02-16T13:42:20.408Z,102711.00
2023-02-16T13:44:54.696Z,102704.72
2023-02-16T13:47:42.207Z,102705.28
2023-02-16T13:50:32.560Z,102698.16
2023-02-16T13:53:16.729Z,102693.31
2023-02-16T13:55:44.185Z,102695.75
2023-02-16T13:58:14.198Z,102691.25
2023-02-16T14:00:47.929Z,102691.06
2023-02-16T14:03:17.731Z,102691.84
2023-02-16T14:05:48.058Z,102685.03
2023-02-16T14:08:22.507Z,102692.28
2023-02-16T14:10:55.475Z,102694.44
2023-02-16T14:13:39.511Z,102690.88
2023-02-16T14:16:07.035Z,102692.72
2023-02-16T14:18:45.216Z,102692.88
2023-02-16T14:21:44.182Z,102693.06
2023-02-16T14:24:24.592Z,102682.16
2023-02-16T14:27:01.780Z,102685.09
2023-02-16T14:30:01.691Z,102680.41
2023-02-16T14:32:38.765Z,102683.34
2023-02-16T14:35:05.617Z,102688.38
2023-02-16T14:37:51.516Z,102686.22
2023-02-16T14:40:22.656Z,102677.31
2023-02-16T14:42:55.311Z,102684.84
2023-02-16T14:45:41.094Z,102690.63
2023-02-16T14:48:26.937Z,102675.75
2023-02-16T14:51:31.308Z,102679.81
2023-02-16T14:54:27.386Z,102676.28
2023-02-16T14:57:02.370Z,102674.88
2023-02-16T14:59:47.886Z,102678.50
2023-02-16T15:02:31.510Z,102680.06
2023-02-16T15:04:58.944Z,102676.81
2023-02-16T15:07:28.868Z,102675.16
2023-02-16T15:09:58.444Z,102670.75
2023-02-16T15:12:40.675Z,102671.31
2023-02-16T15:15:13.563Z,102677.81
2023-02-16T15:17:50.427Z,102673.66
2023-02-16T15:20:25.026Z,102674.00
2023-02-16T15:23:03.858Z,102669.00
2023-02-16T15:25:40.851Z,102676.94
2023-02-16T15:28:10.828Z,102675.75
2023-02-16T15:30:41.957Z,102680.56
2023-02-16T15:33:24.206Z,102679.25
2023-02-16T15:35:55.758Z,102684.91
2023-02-16T15:38:25.760Z,102678.53
2023-02-16T15:40:57.211Z,102680.66
2023-02-16T15:43:36.000Z,102678.84
2023-02-16T15:46:05.020Z,102681.28
2023-02-16T15:48:34.186Z,102678.00
2023-02-16T15:51:02.411Z,102684.47
2023-02-16T15:53:35.409Z,102682.28
2023-02-16T15:56:31.320Z,102683.84
2023-02-16T15:59:01.716Z,102679.63
2023-02-16T16:01:37.897Z,102691.28
2023-02-16T16:04:26.779Z,102681.50
2023-02-16T16:06:54.371Z,102685.94
2023-02-16T16:09:29.855Z,102681.06
2023-02-16T16:12:00.007Z,102689.25
2023-02-16T16:14:27.939Z,102688.56
2023-02-16T16:16:55.944Z,102690.53
2023-02-16T16:19:42.800Z,102685.94
2023-02-16T16:22:33.071Z,102693.53
2023-02-16T16:25:00.590Z,102688.63
2023-02-16T16:27:38.720Z,102688.72
2023-02-16T16:30:20.779Z,102683.13
2023-02-16T16:32:48.010Z,102684.69
2023-02-16T16:35:40.784Z,102693.03
2023-02-16T16:38:22.410Z,102698.69
2023-02-16T16:40:53.195Z,102695.22
2023-02-16T16:43:23.087Z,102696.97
2023-02-16T16:45:57.860Z,102705.94
2023-02-16T16:48:34.720Z,102693.53
2023-02-16T16:51:31.796Z,102707.16
2023-02-16T16:54:04.296Z,102697.28
2023-02-16T16:56:38.247Z,102700.00
2023-02-16T16:59:06.052Z,102706.31
2023-02-16T17:01:33.092Z,102702.69
2023-02-16T17:04:10.361Z,102702.06
2023-02-16T17:06:37.279Z,102700.25
2023-02-16T17:09:11.163Z,102706.63
2023-02-16T17:11:39.071Z,102705.91
2023-02-16T17:14:26.431Z,102712.28
2023-02-16T17:16:56.469Z,102709.69
2023-02-16T17:19:23.578Z,102707.75
2023-02-16T17:21:50.637Z,102708.69
2023-02-16T17:24:17.810Z,102717.41
2023-02-16T17:26:44.784Z,102716.63
2023-02-16T17:29:12.135Z,102717.47
2023-02-16T17:31:39.367Z,102714.81
2023-02-16T17:34:06.473Z,102720.31
2023-02-16T17:36:34.494Z,102719.44
2023-02-16T17:39:02.078Z,102715.97
2023-02-16T17:41:30.044Z,102720.09
2023-02-16T17:43:56.941Z,102725.56
2023-02-16T17:46:25.000Z,102724.81
2023-02-16T17:48:55.184Z,102727.72
2023-02-16T17:51:24.903Z,102720.28
2023-02-16T17:53:52.769Z,102727.00
2023-02-16T17:56:22.444Z,102725.44
2023-02-16T17:58:49.846Z,102721.75
2023-02-16T18:01:19.270Z,102731.34
2023-02-16T18:03:46.261Z,102729.25
2023-02-16T18:06:25.496Z,102727.41
2023-02-16T18:08:57.014Z,102729.41
2023-02-16T18:11:24.994Z,102740.69
2023-02-16T18:13:52.040Z,102738.53
2023-02-16T18:16:21.878Z,102745.59
2023-02-16T18:18:49.209Z,102738.81
2023-02-16T18:21:16.381Z,102746.03
2023-02-16T18:23:43.869Z,102752.50
2023-02-16T18:26:15.144Z,102749.63
2023-02-16T18:28:42.504Z,102753.28
2023-02-16T18:31:10.501Z,102751.31
2023-02-16T18:33:37.622Z,102745.91
2023-02-16T18:36:05.243Z,102746.91
2023-02-16T18:38:32.485Z,102752.59
2023-02-16T18:40:59.716Z,102748.00
2023-02-16T18:43:26.704Z,102755.13
2023-02-16T18:45:53.684Z,102746.31
2023-02-16T18:48:22.138Z,102744.56
2023-02-16T18:50:49.365Z,102750.50
2023-02-16T18:53:16.345Z,102744.16
2023-02-16T18:55:43.301Z,102747.78
2023-02-16T18:58:13.107Z,102756.44
2023-02-16T19:00:41.559Z,102760.06
2023-02-16T19:03:09.061Z,102758.31
2023-02-16T19:05:36.106Z,102762.34
2023-02-16T19:08:03.120Z,102763.09
2023-02-16T19:10:30.358Z,102756.88
2023-02-16T19:12:57.288Z,102763.97
2023-02-16T19:15:24.304Z,102769.16
2023-02-16T19:17:52.252Z,102763.81
2023-02-16T19:20:19.453Z,102767.41
2023-02-16T19:22:48.291Z,102776.25
2023-02-16T19:25:15.346Z,102774.34
2023-02-16T19:27:42.784Z,102778.88
2023-02-16T19:30:10.305Z,102781.44
2023-02-16T19:32:41.036Z,102779.69
2023-02-16T19:35:11.934Z,102785.06
2023-02-16T19:37:39.114Z,102778.13
2023-02-16T19:40:08.713Z,102776.38
2023-02-16T19:42:38.333Z,102779.84
2023-02-16T19:45:06.279Z,102787.06
2023-02-16T19:47:33.288Z,102790.75
2023-02-16T19:50:00.588Z,102785.59
2023-02-16T19:52:27.582Z,102789.34
2023-02-16T19:54:54.496Z,102794.81
2023-02-16T19:57:21.646Z,102799.38
2023-02-16T19:59:48.534Z,102801.75
2023-02-16T20:02:15.718Z,102793.25
2023-02-16T20:04:44.420Z,102790.59
2023-02-16T20:07:11.607Z,102797.75
2023-02-16T20:09:39.260Z,102800.53
2023-02-16T20:12:06.775Z,102803.34
2023-02-16T20:14:33.816Z,102804.41
2023-02-16T20:17:04.002Z,102796.59
2023-02-16T20:19:30.935Z,102801.13
2023-02-16T20:21:57.836Z,102807.53
2023-02-16T20:24:24.847Z,102797.13
2023-02-16T20:26:52.307Z,102810.81
2023-02-16T20:29:21.105Z,102813.53
2023-02-16T20:31:54.873Z,102817.13
2023-02-16T20:34:23.254Z,102823.53
2023-02-16T20:36:50.414Z,102822.75
2023-02-16T20:39:18.907Z,102818.38
2023-02-16T20:41:46.367Z,102825.66
2023-02-16T20:44:13.559Z,102826.59
2023-02-16T20:46:41.278Z,102827.66
2023-02-16T20:49:09.450Z,102825.13
2023-02-16T20:51:37.366Z,102833.19
2023-02-16T20:54:05.325Z,102823.63
2023-02-16T20:56:32.456Z,102829.09
2023-02-16T20:59:00.477Z,102836.41
2023-02-16T21:01:34.442Z,102835.66
2023-02-16T21:04:01.572Z,102839.38
2023-02-16T21:06:28.850Z,102842.31
2023-02-16T21:08:56.619Z,102843.25
2023-02-16T21:11:24.260Z,102847.81
2023-02-16T21:13:51.316Z,102837.41
2023-02-16T21:16:18.509Z,102834.91
2023-02-16T21:18:45.511Z,102840.31
2023-02-16T21:21:15.769Z,102837.97
2023-02-16T21:23:48.171Z,102833.53
2023-02-16T21:26:16.174Z,102839.94
2023-02-16T21:28:43.112Z,102831.97
2023-02-16T21:31:13.286Z,102839.09
2023-02-16T21:33:40.971Z,102839.22
2023-02-16T21:36:14.920Z,102843.75
2023-02-16T21:38:42.165Z,102841.25
2023-02-16T21:41:25.496Z,102834.31
2023-02-16T21:43:54.060Z,102836.22
2023-02-16T21:46:21.898Z,102846.06
2023-02-16T21:48:50.236Z,102835.66
2023-02-16T21:51:24.375Z,102834.03
2023-02-16T21:53:51.515Z,102834.09
2023-02-16T21:56:34.360Z,102838.59
2023-02-16T21:59:02.066Z,102837.97
2023-02-16T22:01:32.250Z,102825.66
2023-02-16T22:04:00.813Z,102823.16
2023-02-16T22:06:32.320Z,102819.66
2023-02-16T22:09:00.177Z,102821.53
2023-02-16T22:11:27.429Z,102826.09
2023-02-16T22:13:56.078Z,102835.03
2023-02-16T22:16:24.191Z,102835.16
2023-02-16T22:19:05.014Z,102837.84
2023-02-16T22:21:37.467Z,102843.34
2023-02-16T22:24:05.400Z,102845.25
2023-02-16T22:26:34.032Z,102851.47
2023-02-16T22:29:03.984Z,102854.22
2023-02-16T22:31:30.973Z,102857.81
2023-02-16T22:34:01.159Z,102854.38
2023-02-16T22:36:28.631Z,102859.81
2023-02-16T22:38:55.925Z,102855.44
2023-02-16T22:41:24.193Z,102866.22
2023-02-16T22:43:59.814Z,102850.34
2023-02-16T22:46:28.723Z,102848.78
2023-02-16T22:48:58.639Z,102848.94
2023-02-16T22:51:28.649Z,102848.22
2023-02-16T22:53:57.749Z,102843.81
2023-02-16T22:56:26.947Z,102839.47
2023-02-16T22:58:57.331Z,102847.47
2023-02-16T23:01:24.936Z,102843.09
2023-02-16T23:03:54.548Z,102845.94
2023-02-16T23:06:23.987Z,102841.56
2023-02-16T23:09:00.681Z,102846.19
2023-02-16T23:11:28.799Z,102852.41
2023-02-16T23:13:56.174Z,102854.25
2023-02-16T23:16:25.167Z,102857.03
2023-02-16T23:18:52.520Z,102849.03
2023-02-16T23:21:22.284Z,102843.81
2023-02-16T23:23:50.784Z,102848.31
2023-02-16T23:26:19.196Z,102844.03
2023-02-16T23:28:50.998Z,102843.19
2023-02-16T23:31:18.773Z,102839.59
2023-02-16T23:33:45.926Z,102842.31
2023-02-16T23:36:12.902Z,102845.03
2023-02-16T23:38:40.067Z,102846.78
2023-02-16T23:41:12.963Z,102843.25
2023-02-16T23:43:39.969Z,102837.19
2023-02-16T23:46:07.582Z,102841.63
2023-02-16T23:48:34.816Z,102837.31
2023-02-16T23:51:01.782Z,102833.84
2023-02-16T23:53:29.198Z,102833.94
2023-02-16T23:56:08.138Z,102829.66
2023-02-16T23:58:42.926Z,102826.97
